Flight Track Log - Related Links

Times and Time Zones

All times are in EDT time to prevent confusion due to time zone crossing. See the AAL2213 flight status page for this flight to view local times or setup timezone preferences in your user account.

Time Position Orientation Groundspeed Altitude Reporting Facility
EDT Latitude Longitude Course Direction KTS MPH feet Rate Location/Type
Wed 02:14:34 PM 29.5483 -98.4464 North 159 183 1,900  Level Houston Center
Wed 02:15:23 PM 29.5861 -98.4228 29° Northeast 204 235 3,200 1,826 Climbing Houston Center
Wed 02:15:43 PM 29.6047 -98.4114 28° Northeast 204 235 4,000 3,049 Climbing Houston Center
Wed 02:16:00 PM 29.8156 -98.4251 North  Level FlightAware Approximate
Wed 02:16:24 PM 29.6489 -98.3983 14° North 260 299 6,300  Level Houston Center
Wed 02:16:45 PM 29.6761 -98.3994 358° North 249 287 7,600 2,714 Climbing Houston Center
Wed 02:17:00 PM 29.9106 -98.4172 North  Level FlightAware Approximate
Wed 02:17:48 PM 29.7494 -98.4014 359° North 263 303 10,100  Level Houston Center
Wed 02:18:00 PM 30.0046 -98.3991 10° North  Level FlightAware Approximate
Wed 02:18:50 PM 29.8422 -98.3975 North 317 365 12,400  Level Houston Center
Wed 02:19:00 PM 30.0987 -98.3833 North  Level FlightAware Approximate
Wed 02:19:52 PM 29.9372 -98.3975 360° North 339 390 14,700  Level Houston Center
Wed 02:20:00 PM 30.1868 -98.3638 North  Level FlightAware Approximate
Wed 02:20:54 PM 30.0478 -98.3947 North 366 421 17,300  Level Houston Center
Wed 02:21:56 PM 30.1547 -98.3869 North 383 441 19,400 1,968 Climbing Houston Center
Wed 02:22:59 PM 30.2722 -98.3689 North 393 452 21,400 1,632 Climbing Houston Center
Wed 02:24:01 PM 30.3778 -98.3544 North 408 470 22,800 1,355 Climbing Houston Center
Wed 02:25:03 PM 30.4989 -98.3347 North 431 496 24,200 1,500 Climbing Houston Center
Wed 02:26:05 PM 30.6231 -98.3169 North 443 510 25,900 1,500 Climbing Houston Center
Wed 02:27:07 PM 30.7494 -98.2989 North 450 518 27,300 1,296 Climbing Houston Center
Wed 02:28:10 PM 30.9058 -98.2753 North 467 537 28,600 816 Climbing Houston Center
Wed 02:29:12 PM 31.0394 -98.2544 North 477 549 29,000 -50 Climbing Houston Center
Wed 02:30:09 PM 31.1703 -98.2342 North 476 548 28,500 -807 Descending Fort Worth Center
Wed 02:31:11 PM 31.3008 -98.1811 19° North 490 564 27,400 -1,500 Descending Fort Worth Center
Wed 02:32:13 PM 31.4317 -98.1353 17° North 489 563 25,400 -1,839 Descending Fort Worth Center
Wed 02:33:15 PM 31.5575 -98.0828 20° North 486 559 23,600 -1,984 Descending Fort Worth Center
Wed 02:34:17 PM 31.6806 -98.0144 25° Northeast 488 562 21,300 -2,226 Descending Fort Worth Center
Wed 02:35:19 PM 31.7997 -97.9517 24° Northeast 472 543 19,000 -1,984 Descending Fort Worth Center
Wed 02:36:21 PM 31.9097 -97.8928 24° Northeast 442 509 17,200 -2,081 Descending Fort Worth Center
Wed 02:37:23 PM 32.0319 -97.8275 24° Northeast 393 452 14,700 -1,968 Descending Fort Worth Center
Wed 02:38:26 PM 32.1264 -97.7775 24° Northeast 372 428 13,100 -1,440 Descending Fort Worth Center
Wed 02:39:28 PM 32.2225 -97.7256 25° Northeast 355 409 11,700 -1,016 Descending Fort Worth Center
Wed 02:40:30 PM 32.3011 -97.6828 25° Northeast 309 356 11,000 -1,161 Descending Fort Worth Center
Wed 02:41:32 PM 32.3708 -97.6275 34° Northeast 286 329 9,300 -1,500 Descending Fort Worth Center
Wed 02:42:34 PM 32.4286 -97.5581 45° Northeast 293 337 7,900 -1,355 Descending Fort Worth Center
Wed 02:43:36 PM 32.4753 -97.4778 55° Northeast 282 325 6,500 -1,113 Descending Fort Worth Center
Wed 02:44:38 PM 32.5083 -97.3956 64° Northeast 276 318 5,600 -726 Descending Fort Worth Center
Wed 02:45:40 PM 32.5453 -97.3064 64° Northeast 281 323 5,000 -432 Descending Fort Worth Center
Wed 02:46:43 PM 32.5917 -97.2458 48° Northeast 256 295 4,700 -576 Descending Fort Worth Center
Wed 02:47:45 PM 32.6425 -97.1856 45° Northeast 256 295 3,800 -774 Descending Fort Worth Center
Wed 02:48:47 PM 32.6931 -97.1247 45° Northeast 247 284 3,100 -387 Descending Fort Worth Center
Wed 02:49:49 PM 32.7278 -97.0853 44° Northeast 185 213 3,000 -97 Descending Fort Worth Center
Wed 02:50:51 PM 32.7733 -97.0678 18° North 161 185 2,900 -581 Descending Fort Worth Center
Wed 02:51:53 PM 32.8158 -97.0547 14° North 160 184 1,800 -919 Descending Fort Worth Center
Wed 02:52:55 PM 32.8586 -97.0564 358° North 145 167 1,000 -532 Descending Fort Worth Center
Wed 02:53:57 PM 32.8950 -97.0544 North 144 166 700 -290 Descending Fort Worth Center

Login

Don't have an account? Register now (free) for customized features, flight alerts, and more!